Time;durP1;ratioP1;P1;durP2;ratioP2;P2;SDS_P1;SDS_P2;PMS_P1;PMS_P2;Temp;Humidity;BMP_temperature;BMP_pressure;BME280_temperature;BME280_humidity;BME280_pressure;Samples;Min_cycle;Max_cycle;Signal;HPM_P1;HPM_P2
2023/01/14 00:02:25;;;;;;;;;;;7.30;99.90;;;;;;5031542;28;19948;-81
2023/01/14 00:04:50;;;;;;;;;;;7.40;99.90;;;;;;5031933;28;19960;-81
2023/01/14 00:07:16;;;;;;;;;;;7.40;99.90;;;;;;5037293;28;19925;-81
2023/01/14 00:09:42;;;;;;;;;;;7.40;99.90;;;;;;5019415;28;20399;-81
2023/01/14 00:12:08;;;;;;;;;;;7.40;99.90;;;;;;5039161;28;19929;-81
2023/01/14 00:14:33;;;;;;;;;;;7.50;99.90;;;;;;5034968;28;19932;-81
2023/01/14 00:17:00;;;;;;;;;;;7.50;99.90;;;;;;5029032;28;19936;-81
2023/01/14 00:19:25;;;;;;;;;;;7.50;99.90;;;;;;5013480;28;19925;-82
2023/01/14 00:21:51;;;;;;;;;;;7.50;99.90;;;;;;4998838;28;19986;-81
2023/01/14 00:24:19;;;;;;;;;;;7.60;99.90;;;;;;4998420;28;19929;-80
2023/01/14 00:26:44;;;;;;;;;;;7.50;99.90;;;;;;5029828;28;19940;-81
2023/01/14 00:29:15;;;;;;;;;;;7.50;99.90;;;;;;5014008;28;19929;-82
2023/01/14 00:31:42;;;;;;;;;;;7.50;99.90;;;;;;5030070;28;19960;-81
2023/01/14 00:34:08;;;;;;;;;;;7.50;99.90;;;;;;5029683;28;19960;-81
2023/01/14 00:36:33;;;;;;;;;;;7.50;99.90;;;;;;5031355;28;19929;-81
2023/01/14 00:38:59;;;;;;;;;;;7.40;99.90;;;;;;5017910;28;19925;-81
2023/01/14 00:41:25;;;;;;;;;;;7.40;99.90;;;;;;5017014;28;19967;-82
2023/01/14 00:43:55;;;;;;;;;;;7.30;99.90;;;;;;5017947;28;19960;-81
2023/01/14 00:46:22;;;;;;;;;;;7.30;99.90;;;;;;5037568;28;19955;-81
2023/01/14 00:48:48;;;;;;;;;;;7.20;99.90;;;;;;5033960;28;19952;-81
2023/01/14 00:51:14;;;;;;;;;;;7.20;99.90;;;;;;5038701;28;19925;-81
2023/01/14 00:53:40;;;;;;;;;;;7.20;99.90;;;;;;5001851;28;19925;-81
2023/01/14 00:56:06;;;;;;;;;;;7.20;99.90;;;;;;5018115;28;19944;-81
2023/01/14 00:58:32;;;;;;;;;;;7.20;99.90;;;;;;5033515;28;19925;-81
2023/01/14 01:00:58;;;;;;;;;;;7.30;99.90;;;;;;5035151;28;19956;-81
2023/01/14 01:03:24;;;;;;;;;;;7.30;99.90;;;;;;5035992;28;19992;-81
2023/01/14 01:05:50;;;;;;;;;;;7.30;99.90;;;;;;5000356;28;19925;-82
2023/01/14 01:08:18;;;;;;;;;;;7.30;99.90;;;;;;5003282;28;20364;-82
2023/01/14 01:10:44;;;;;;;;;;;7.30;99.90;;;;;;5029588;28;19980;-81
2023/01/14 01:13:10;;;;;;;;;;;7.30;99.90;;;;;;5034529;28;19936;-81
2023/01/14 01:15:37;;;;;;;;;;;7.30;99.90;;;;;;5036603;28;19925;-82
2023/01/14 01:18:03;;;;;;;;;;;7.30;99.90;;;;;;4999706;28;19931;-81
2023/01/14 01:20:29;;;;;;;;;;;7.30;99.90;;;;;;5020228;28;19968;-81
2023/01/14 01:22:54;;;;;;;;;;;7.20;99.90;;;;;;5016639;28;20460;-81
2023/01/14 01:25:20;;;;;;;;;;;7.30;99.90;;;;;;5011877;28;19930;-81
2023/01/14 01:27:46;;;;;;;;;;;7.30;99.90;;;;;;5034088;28;19936;-81
2023/01/14 01:30:12;;;;;;;;;;;7.30;99.90;;;;;;5035757;28;19959;-82
2023/01/14 01:32:37;;;;;;;;;;;7.30;99.90;;;;;;5018540;28;19940;-81
2023/01/14 01:35:04;;;;;;;;;;;7.30;99.90;;;;;;5017886;28;19925;-81
2023/01/14 01:37:29;;;;;;;;;;;7.30;99.90;;;;;;5038056;28;20513;-81
2023/01/14 01:39:55;;;;;;;;;;;7.30;99.90;;;;;;5029893;28;19925;-81
2023/01/14 01:42:22;;;;;;;;;;;7.30;99.90;;;;;;5016311;28;19989;-81
2023/01/14 01:45:07;;;;;;;;;;;7.30;99.90;;;;;;5033349;28;19925;-81
2023/01/14 01:47:33;;;;;;;;;;;7.30;99.90;;;;;;5029391;28;20008;-81
2023/01/14 01:49:58;;;;;;;;;;;7.40;99.90;;;;;;5020296;28;19976;-81
2023/01/14 01:52:26;;;;;;;;;;;7.40;99.90;;;;;;5019986;28;19929;-81
2023/01/14 01:54:55;;;;;;;;;;;7.30;99.90;;;;;;5038938;28;19936;-81
2023/01/14 01:57:20;;;;;;;;;;;7.30;99.90;;;;;;5038795;28;19930;-81
2023/01/14 01:59:49;;;;;;;;;;;7.40;99.90;;;;;;5039342;28;19976;-81
2023/01/14 02:02:15;;;;;;;;;;;7.40;99.90;;;;;;5020955;28;19983;-81
2023/01/14 02:04:41;;;;;;;;;;;7.40;99.90;;;;;;5039034;28;20553;-81
2023/01/14 02:07:14;;;;;;;;;;;7.40;99.90;;;;;;5040105;28;20024;-81
2023/01/14 02:09:40;;;;;;;;;;;7.50;99.90;;;;;;5037476;28;19958;-81
2023/01/14 02:12:17;;;;;;;;;;;7.50;99.90;;;;;;5022607;28;19936;-82
2023/01/14 02:14:51;;;;;;;;;;;7.50;99.90;;;;;;5020695;28;20433;-81
2023/01/14 02:17:29;;;;;;;;;;;7.40;99.90;;;;;;5042666;28;19929;-82
2023/01/14 02:20:14;;;;;;;;;;;7.40;99.90;;;;;;5036964;28;19929;-81
2023/01/14 02:22:54;;;;;;;;;;;7.40;99.90;;;;;;5022410;28;19929;-81
2023/01/14 02:25:23;;;;;;;;;;;7.40;99.90;;;;;;5032683;28;19933;-81
2023/01/14 02:27:52;;;;;;;;;;;7.40;99.90;;;;;;5036650;28;19960;-81
2023/01/14 02:30:22;;;;;;;;;;;7.40;99.90;;;;;;5038665;28;20092;-81
2023/01/14 02:33:07;;;;;;;;;;;7.30;99.90;;;;;;5039074;28;20031;-81
2023/01/14 02:35:36;;;;;;;;;;;7.40;99.90;;;;;;4989942;28;19976;-81
2023/01/14 02:38:14;;;;;;;;;;;7.30;99.90;;;;;;5021303;28;19934;-81
2023/01/14 02:40:42;;;;;;;;;;;7.30;99.90;;;;;;5018312;28;19925;-81
2023/01/14 02:46:34;;;;;;;;;;;7.10;99.90;;;;;;5038825;28;19936;-81
2023/01/14 02:49:00;;;;;;;;;;;7.00;99.90;;;;;;5015650;28;20343;-81
2023/01/14 02:51:26;;;;;;;;;;;6.90;99.90;;;;;;5004051;28;19936;-81
2023/01/14 02:53:52;;;;;;;;;;;6.80;99.90;;;;;;5004563;28;19925;-81
2023/01/14 02:56:18;;;;;;;;;;;6.80;99.90;;;;;;5021343;28;19972;-81
2023/01/14 02:58:43;;;;;;;;;;;6.70;99.90;;;;;;5020634;28;19929;-81
2023/01/14 03:01:26;;;;;;;;;;;6.70;99.90;;;;;;5037513;28;19960;-81
2023/01/14 03:04:04;;;;;;;;;;;6.60;99.90;;;;;;5021732;28;19929;-81
2023/01/14 03:06:42;;;;;;;;;;;6.50;99.90;;;;;;5020444;28;19964;-81
2023/01/14 03:09:10;;;;;;;;;;;6.40;99.90;;;;;;5003239;28;19929;-81
2023/01/14 03:11:41;;;;;;;;;;;6.30;99.90;;;;;;5042051;28;19940;-81
2023/01/14 03:14:09;;;;;;;;;;;6.20;99.90;;;;;;5020572;28;19925;-81
2023/01/14 03:16:44;;;;;;;;;;;6.10;99.90;;;;;;5017003;28;19929;-82
2023/01/14 03:19:17;;;;;;;;;;;6.00;99.90;;;;;;5037054;28;19972;-81
2023/01/14 03:21:52;;;;;;;;;;;5.90;99.90;;;;;;5038995;28;20008;-81
2023/01/14 03:24:24;;;;;;;;;;;5.90;99.90;;;;;;5037658;28;19948;-81
2023/01/14 03:26:52;;;;;;;;;;;5.80;99.90;;;;;;5019008;28;20026;-81
2023/01/14 03:29:20;;;;;;;;;;;5.80;99.90;;;;;;5039399;28;20024;-81
2023/01/14 03:32:09;;;;;;;;;;;5.70;99.90;;;;;;5020101;28;20319;-80
2023/01/14 03:34:37;;;;;;;;;;;5.70;99.90;;;;;;5030063;28;19925;-81
2023/01/14 03:37:05;;;;;;;;;;;5.70;99.90;;;;;;5020690;28;19929;-81
2023/01/14 03:39:31;;;;;;;;;;;5.80;99.90;;;;;;5031959;28;20012;-81
2023/01/14 03:42:18;;;;;;;;;;;5.80;99.90;;;;;;5016776;28;19925;-81
2023/01/14 03:44:49;;;;;;;;;;;5.90;99.90;;;;;;5033000;28;19968;-81
2023/01/14 03:47:16;;;;;;;;;;;5.80;99.90;;;;;;5020353;28;19925;-81
2023/01/14 03:49:41;;;;;;;;;;;5.90;99.90;;;;;;5037880;28;19928;-81
2023/01/14 03:52:25;;;;;;;;;;;5.80;99.90;;;;;;5019904;28;20395;-81
2023/01/14 03:54:56;;;;;;;;;;;5.80;99.90;;;;;;5036133;28;20027;-81
2023/01/14 03:57:25;;;;;;;;;;;5.80;99.90;;;;;;5035794;28;19925;-81
2023/01/14 03:59:55;;;;;;;;;;;5.80;99.90;;;;;;5035937;28;20362;-81
2023/01/14 04:02:22;;;;;;;;;;;5.80;99.90;;;;;;5036306;28;19929;-81
2023/01/14 04:04:48;;;;;;;;;;;5.80;99.90;;;;;;5019520;28;19936;-81
2023/01/14 04:07:14;;;;;;;;;;;5.80;99.90;;;;;;5019916;28;19932;-81
2023/01/14 04:09:40;;;;;;;;;;;5.80;99.90;;;;;;5035132;28;19925;-82
2023/01/14 04:12:05;;;;;;;;;;;5.80;99.90;;;;;;5034657;28;19926;-81
2023/01/14 04:17:15;;;;;;;;;;;5.80;99.90;;;;;;5037670;28;19968;-81
2023/01/14 04:19:41;;;;;;;;;;;5.80;99.90;;;;;;5036578;28;19925;-81
2023/01/14 04:22:06;;;;;;;;;;;5.80;99.90;;;;;;5019025;28;19932;-82
2023/01/14 04:24:32;;;;;;;;;;;5.80;99.90;;;;;;5020052;28;19948;-82
2023/01/14 04:26:57;;;;;;;;;;;5.80;99.90;;;;;;5034270;28;19932;-81
2023/01/14 04:29:23;;;;;;;;;;;5.80;99.90;;;;;;5019788;28;19933;-81
2023/01/14 04:31:48;;;;;;;;;;;5.80;99.90;;;;;;5018606;28;19948;-81
2023/01/14 04:34:14;;;;;;;;;;;5.80;99.90;;;;;;5020000;28;19925;-81
2023/01/14 04:36:40;;;;;;;;;;;5.80;99.90;;;;;;5038008;28;19932;-81
2023/01/14 04:39:05;;;;;;;;;;;5.80;99.90;;;;;;5034656;28;19936;-81
2023/01/14 04:44:15;;;;;;;;;;;5.70;99.90;;;;;;5034640;28;19925;-81
2023/01/14 04:46:42;;;;;;;;;;;5.70;99.90;;;;;;5037141;28;19983;-81
2023/01/14 04:49:07;;;;;;;;;;;5.70;99.90;;;;;;5035250;28;19932;-81
2023/01/14 04:51:33;;;;;;;;;;;5.70;99.90;;;;;;5019408;28;19929;-82
2023/01/14 04:53:58;;;;;;;;;;;5.80;99.90;;;;;;5037122;28;20014;-81
2023/01/14 04:56:24;;;;;;;;;;;5.70;99.90;;;;;;5035377;28;19948;-81
2023/01/14 04:58:49;;;;;;;;;;;5.70;99.90;;;;;;5036453;28;19933;-82
2023/01/14 05:01:15;;;;;;;;;;;5.70;99.90;;;;;;5035580;28;19933;-82
2023/01/14 05:03:40;;;;;;;;;;;5.70;99.90;;;;;;5018872;28;19926;-81
2023/01/14 05:06:06;;;;;;;;;;;5.80;99.90;;;;;;5007767;28;19925;-81
2023/01/14 05:08:32;;;;;;;;;;;5.70;99.90;;;;;;5038504;28;20031;-81
2023/01/14 05:10:57;;;;;;;;;;;5.70;99.90;;;;;;5019724;28;19929;-81
2023/01/14 05:13:23;;;;;;;;;;;5.70;99.90;;;;;;5037498;28;19992;-81
2023/01/14 05:15:49;;;;;;;;;;;5.70;99.90;;;;;;5020205;28;19981;-81
2023/01/14 05:18:15;;;;;;;;;;;5.70;99.90;;;;;;5036123;28;20032;-81
2023/01/14 05:20:41;;;;;;;;;;;5.70;99.90;;;;;;5004323;28;19929;-81
2023/01/14 05:23:10;;;;;;;;;;;5.70;99.90;;;;;;5037613;28;19947;-81
2023/01/14 05:25:36;;;;;;;;;;;5.70;99.90;;;;;;5037967;28;20027;-81
2023/01/14 05:28:02;;;;;;;;;;;5.70;99.90;;;;;;5019473;28;20363;-81
2023/01/14 05:30:28;;;;;;;;;;;5.70;99.90;;;;;;5002483;28;19929;-81
2023/01/14 05:32:54;;;;;;;;;;;5.60;99.90;;;;;;5037285;28;19925;-82
2023/01/14 05:35:20;;;;;;;;;;;5.60;99.90;;;;;;5019387;28;20388;-82
2023/01/14 05:37:45;;;;;;;;;;;5.60;99.90;;;;;;5020502;28;19969;-82
2023/01/14 05:40:11;;;;;;;;;;;5.60;99.90;;;;;;5035665;28;19928;-81
2023/01/14 05:45:48;;;;;;;;;;;5.60;99.90;;;;;;5038236;28;20008;-81
2023/01/14 05:48:14;;;;;;;;;;;5.60;99.90;;;;;;5025453;28;19964;-82
2023/01/14 05:50:40;;;;;;;;;;;5.60;99.90;;;;;;5003746;28;19929;-81
2023/01/14 05:53:06;;;;;;;;;;;5.60;99.90;;;;;;5035363;28;19935;-81
2023/01/14 05:55:32;;;;;;;;;;;5.60;99.90;;;;;;5019774;28;20395;-82
2023/01/14 05:57:58;;;;;;;;;;;5.50;99.90;;;;;;5036302;28;19929;-81
2023/01/14 06:08:44;;;;;;;;;;;5.60;99.90;;;;;;5022934;28;19931;-81
2023/01/14 06:11:10;;;;;;;;;;;5.60;99.90;;;;;;5034553;28;19926;-81
2023/01/14 06:13:35;;;;;;;;;;;5.60;99.90;;;;;;5033847;28;19936;-81
2023/01/14 06:16:03;;;;;;;;;;;5.60;99.90;;;;;;5024439;28;19964;-81
2023/01/14 06:18:37;;;;;;;;;;;5.60;99.90;;;;;;5033313;28;19933;-82
2023/01/14 06:21:03;;;;;;;;;;;5.60;99.90;;;;;;5019144;28;19925;-81
2023/01/14 06:23:29;;;;;;;;;;;5.60;99.90;;;;;;5033781;28;19925;-81
2023/01/14 06:25:54;;;;;;;;;;;5.70;99.90;;;;;;5042218;28;20442;-81
2023/01/14 06:28:20;;;;;;;;;;;5.60;99.90;;;;;;5035449;28;20699;-81
2023/01/14 06:30:45;;;;;;;;;;;5.70;99.90;;;;;;5035151;28;20015;-82
2023/01/14 06:33:11;;;;;;;;;;;5.70;99.90;;;;;;5020802;28;19926;-81
2023/01/14 06:35:41;;;;;;;;;;;5.70;99.90;;;;;;5037405;28;19935;-81
2023/01/14 06:38:07;;;;;;;;;;;5.70;99.90;;;;;;5037261;28;19978;-81
2023/01/14 06:40:32;;;;;;;;;;;5.70;99.90;;;;;;5036650;28;20020;-81
2023/01/14 06:42:58;;;;;;;;;;;5.70;99.90;;;;;;5036369;28;19936;-82
2023/01/14 06:45:24;;;;;;;;;;;5.70;99.90;;;;;;5035813;28;19936;-81
2023/01/14 06:47:50;;;;;;;;;;;5.70;99.90;;;;;;5018101;28;19983;-81
2023/01/14 06:50:18;;;;;;;;;;;5.80;99.90;;;;;;5039714;28;19925;-81
2023/01/14 06:52:44;;;;;;;;;;;5.80;99.90;;;;;;5037297;28;20087;-82
2023/01/14 06:55:09;;;;;;;;;;;5.80;99.90;;;;;;5040164;28;19936;-81
2023/01/14 06:57:35;;;;;;;;;;;5.80;99.90;;;;;;5019038;28;19972;-81
2023/01/14 07:00:01;;;;;;;;;;;5.80;99.90;;;;;;5039414;28;19925;-81
2023/01/14 07:02:26;;;;;;;;;;;5.80;99.90;;;;;;5019382;28;19947;-81
2023/01/14 07:04:52;;;;;;;;;;;5.80;99.90;;;;;;5038287;28;20046;-81
2023/01/14 07:07:18;;;;;;;;;;;5.80;99.90;;;;;;5020989;28;20403;-81
2023/01/14 07:09:44;;;;;;;;;;;5.90;99.90;;;;;;5036700;28;19934;-82
2023/01/14 07:12:09;;;;;;;;;;;5.90;99.90;;;;;;5038148;28;19929;-82
2023/01/14 07:14:35;;;;;;;;;;;5.90;99.90;;;;;;5018900;28;20087;-81
2023/01/14 07:17:01;;;;;;;;;;;5.90;99.90;;;;;;5023279;28;19929;-82
2023/01/14 07:19:27;;;;;;;;;;;5.90;99.90;;;;;;5027510;28;19924;-81
2023/01/14 07:21:52;;;;;;;;;;;6.00;99.90;;;;;;5023802;28;19975;-81
2023/01/14 07:24:18;;;;;;;;;;;6.00;99.90;;;;;;5038767;28;19936;-82
2023/01/14 07:26:43;;;;;;;;;;;6.00;99.90;;;;;;5037299;28;19948;-81
2023/01/14 07:29:09;;;;;;;;;;;6.00;99.90;;;;;;5020012;28;19925;-81
2023/01/14 07:31:35;;;;;;;;;;;6.00;99.90;;;;;;5037279;28;19929;-81
2023/01/14 07:34:00;;;;;;;;;;;6.10;99.90;;;;;;5037662;28;19987;-82
2023/01/14 07:36:26;;;;;;;;;;;6.10;99.90;;;;;;5038736;28;19987;-82
2023/01/14 07:38:51;;;;;;;;;;;6.10;99.90;;;;;;5035290;28;19940;-82
2023/01/14 07:41:18;;;;;;;;;;;6.10;99.90;;;;;;5038421;28;19925;-81
2023/01/14 07:43:44;;;;;;;;;;;6.10;99.90;;;;;;5034877;28;20558;-82
2023/01/14 07:46:10;;;;;;;;;;;6.10;99.90;;;;;;5037038;28;20032;-81
2023/01/14 07:48:35;;;;;;;;;;;6.10;99.90;;;;;;5035655;28;20000;-81
2023/01/14 07:51:02;;;;;;;;;;;6.20;99.90;;;;;;5020167;28;20442;-81
2023/01/14 07:53:27;;;;;;;;;;;6.20;99.90;;;;;;5036822;28;19992;-82
2023/01/14 07:55:53;;;;;;;;;;;6.20;99.90;;;;;;5033632;28;19933;-81
2023/01/14 07:58:21;;;;;;;;;;;6.20;99.90;;;;;;5032443;28;19932;-81
2023/01/14 08:00:47;;;;;;;;;;;6.20;99.90;;;;;;5035149;28;19991;-88
2023/01/14 08:03:13;;;;;;;;;;;6.30;99.90;;;;;;5035331;28;19925;-87
2023/01/14 08:05:38;;;;;;;;;;;6.20;99.90;;;;;;5015762;28;20464;-87
2023/01/14 08:08:04;;;;;;;;;;;6.30;99.90;;;;;;4996207;28;19991;-87
2023/01/14 08:10:29;;;;;;;;;;;6.30;99.90;;;;;;4985937;28;19965;-87
2023/01/14 08:12:55;;;;;;;;;;;6.30;99.90;;;;;;5035754;28;19940;-88
2023/01/14 08:15:20;;;;;;;;;;;6.20;99.90;;;;;;5017452;28;19933;-87
2023/01/14 08:17:46;;;;;;;;;;;6.30;99.90;;;;;;5015801;28;19939;-87
2023/01/14 08:20:12;;;;;;;;;;;6.20;99.90;;;;;;5033828;28;19925;-88
2023/01/14 08:22:37;;;;;;;;;;;6.30;99.90;;;;;;5010954;28;19925;-86
2023/01/14 08:25:04;;;;;;;;;;;6.30;99.90;;;;;;5012517;28;19933;-86
2023/01/14 08:27:29;;;;;;;;;;;6.30;99.90;;;;;;5016597;28;19925;-86
2023/01/14 08:29:56;;;;;;;;;;;6.20;99.90;;;;;;5034365;28;19925;-86
2023/01/14 08:32:22;;;;;;;;;;;6.30;99.90;;;;;;5032916;28;19950;-86
2023/01/14 08:34:47;;;;;;;;;;;6.30;99.90;;;;;;5029432;28;20303;-86
2023/01/14 08:37:13;;;;;;;;;;;6.30;99.90;;;;;;5023035;28;20375;-86
2023/01/14 08:39:38;;;;;;;;;;;6.20;99.90;;;;;;5019032;28;19931;-86
2023/01/14 08:42:04;;;;;;;;;;;6.20;99.90;;;;;;5046341;28;19985;-86
2023/01/14 08:44:30;;;;;;;;;;;6.20;99.90;;;;;;5019525;28;19936;-87
2023/01/14 08:46:55;;;;;;;;;;;6.20;99.90;;;;;;5025845;28;19929;-86
2023/01/14 08:49:21;;;;;;;;;;;6.20;99.90;;;;;;5034453;28;20589;-85
2023/01/14 08:51:46;;;;;;;;;;;6.20;99.90;;;;;;5019523;28;19936;-86
2023/01/14 08:54:12;;;;;;;;;;;6.20;99.90;;;;;;5035412;28;19983;-85
2023/01/14 08:56:37;;;;;;;;;;;6.20;99.90;;;;;;5018063;28;20047;-88
2023/01/14 08:59:03;;;;;;;;;;;6.20;99.90;;;;;;5034153;28;19936;-87
2023/01/14 09:01:29;;;;;;;;;;;6.20;99.90;;;;;;5034846;28;20000;-88
2023/01/14 09:03:57;;;;;;;;;;;6.20;99.90;;;;;;5019136;28;19936;-88
2023/01/14 09:06:23;;;;;;;;;;;6.20;99.90;;;;;;5034778;28;19936;-88
2023/01/14 09:17:05;;;;;;;;;;;6.20;99.90;;;;;;5038276;28;19935;-82
2023/01/14 09:19:32;;;;;;;;;;;6.20;99.90;;;;;;5019354;28;19929;-82
2023/01/14 09:21:58;;;;;;;;;;;6.20;99.90;;;;;;5001391;28;19980;-82
2023/01/14 09:24:23;;;;;;;;;;;6.20;99.90;;;;;;5038006;28;19936;-82
2023/01/14 09:26:49;;;;;;;;;;;6.20;99.90;;;;;;5043429;28;19929;-87
2023/01/14 09:29:14;;;;;;;;;;;6.20;99.90;;;;;;5034738;28;20715;-87
2023/01/14 09:31:40;;;;;;;;;;;6.20;99.90;;;;;;4995992;28;19972;-87
2023/01/14 09:34:06;;;;;;;;;;;6.30;99.90;;;;;;5006595;28;19933;-87
2023/01/14 09:36:31;;;;;;;;;;;6.30;99.90;;;;;;5019231;28;19925;-87
2023/01/14 09:38:57;;;;;;;;;;;6.30;99.90;;;;;;5018430;28;19948;-87
2023/01/14 09:41:31;;;;;;;;;;;6.30;99.90;;;;;;5026838;28;19929;-87
2023/01/14 09:43:57;;;;;;;;;;;6.40;99.90;;;;;;5021285;28;19925;-87
2023/01/14 09:46:24;;;;;;;;;;;6.30;99.90;;;;;;5038560;28;19937;-87
2023/01/14 09:48:50;;;;;;;;;;;6.40;99.90;;;;;;5036047;28;20047;-87
2023/01/14 09:51:22;;;;;;;;;;;6.40;99.90;;;;;;5003765;28;19968;-87
2023/01/14 09:54:02;;;;;;;;;;;6.50;99.90;;;;;;5037243;28;19944;-87
2023/01/14 09:56:49;;;;;;;;;;;6.40;99.90;;;;;;5033699;28;20027;-87
2023/01/14 09:59:25;;;;;;;;;;;6.50;99.90;;;;;;5018165;28;19925;-87
2023/01/14 10:01:51;;;;;;;;;;;6.50;99.90;;;;;;5033649;28;19932;-87
2023/01/14 10:04:28;;;;;;;;;;;6.50;99.90;;;;;;5037582;28;19925;-87
2023/01/14 10:06:55;;;;;;;;;;;6.50;99.90;;;;;;5017746;28;20696;-87
2023/01/14 10:09:26;;;;;;;;;;;6.50;99.90;;;;;;5039679;28;20376;-87
2023/01/14 10:11:53;;;;;;;;;;;6.60;99.90;;;;;;5023565;28;20479;-87
2023/01/14 10:14:23;;;;;;;;;;;6.60;99.90;;;;;;5019848;28;19929;-87
2023/01/14 10:17:10;;;;;;;;;;;6.60;99.90;;;;;;5022696;28;21814;-87
2023/01/14 10:19:42;;;;;;;;;;;6.60;99.90;;;;;;5039804;28;19928;-87
2023/01/14 10:22:14;;;;;;;;;;;6.70;99.90;;;;;;5020686;28;19929;-87
2023/01/14 10:24:41;;;;;;;;;;;6.70;99.90;;;;;;5039974;28;20012;-87
2023/01/14 10:27:17;;;;;;;;;;;6.70;99.90;;;;;;5020793;28;20019;-87
2023/01/14 10:29:43;;;;;;;;;;;6.70;99.90;;;;;;5019309;28;19925;-87
2023/01/14 10:32:13;;;;;;;;;;;6.70;99.90;;;;;;5019917;28;19987;-85
2023/01/14 10:34:43;;;;;;;;;;;6.80;99.90;;;;;;5021398;28;19928;-87
2023/01/14 10:37:09;;;;;;;;;;;6.80;99.90;;;;;;5022535;28;19935;-86
2023/01/14 10:39:35;;;;;;;;;;;6.70;99.90;;;;;;5020689;28;19933;-84
2023/01/14 10:42:03;;;;;;;;;;;6.80;99.90;;;;;;5006870;28;19925;-85
2023/01/14 10:44:33;;;;;;;;;;;6.80;99.90;;;;;;5004531;28;19933;-84
2023/01/14 10:47:04;;;;;;;;;;;6.80;99.90;;;;;;5021073;28;19933;-84
2023/01/14 10:49:37;;;;;;;;;;;6.90;99.90;;;;;;5028651;28;20537;-84
2023/01/14 10:52:21;;;;;;;;;;;6.90;99.90;;;;;;5020508;28;19935;-84
2023/01/14 10:54:59;;;;;;;;;;;6.90;99.90;;;;;;5026224;28;19951;-84
2023/01/14 10:57:25;;;;;;;;;;;7.00;99.90;;;;;;5019623;28;19925;-84
2023/01/14 10:59:55;;;;;;;;;;;7.10;99.90;;;;;;5009159;28;19980;-84
2023/01/14 11:02:43;;;;;;;;;;;7.10;99.90;;;;;;5031799;28;19948;-84
2023/01/14 11:05:29;;;;;;;;;;;7.10;99.90;;;;;;5039436;28;20324;-85
2023/01/14 11:07:56;;;;;;;;;;;7.10;99.90;;;;;;5023252;28;19947;-84
2023/01/14 11:10:23;;;;;;;;;;;7.10;99.90;;;;;;5021006;28;19929;-85
2023/01/14 11:12:50;;;;;;;;;;;7.20;99.90;;;;;;5006063;28;19965;-84
2023/01/14 11:15:33;;;;;;;;;;;7.20;99.90;;;;;;5020810;28;20377;-84
2023/01/14 11:18:34;;;;;;;;;;;7.20;99.90;;;;;;5004394;28;19929;-84
2023/01/14 11:21:11;;;;;;;;;;;7.20;99.90;;;;;;4953176;28;19990;-85
2023/01/14 11:23:38;;;;;;;;;;;7.20;99.90;;;;;;5013012;28;19932;-84
2023/01/14 11:26:07;;;;;;;;;;;7.30;99.90;;;;;;5016953;28;19932;-84
2023/01/14 11:28:35;;;;;;;;;;;7.30;99.90;;;;;;5021892;28;19936;-84
2023/01/14 11:31:01;;;;;;;;;;;7.30;99.90;;;;;;5024176;28;19971;-85
2023/01/14 11:33:27;;;;;;;;;;;7.30;99.90;;;;;;5025146;28;20382;-84
2023/01/14 11:35:54;;;;;;;;;;;7.30;99.90;;;;;;5035347;28;19948;-84
2023/01/14 11:38:21;;;;;;;;;;;7.30;99.90;;;;;;5009843;28;19935;-84
2023/01/14 11:43:50;;;;;;;;;;;7.30;99.90;;;;;;5019294;28;19925;-84
2023/01/14 11:46:16;;;;;;;;;;;7.30;99.90;;;;;;5027519;28;19925;-84
2023/01/14 11:48:42;;;;;;;;;;;7.40;99.90;;;;;;5019659;28;19971;-84
2023/01/14 11:51:16;;;;;;;;;;;7.30;99.90;;;;;;5036443;28;19929;-84
2023/01/14 11:53:46;;;;;;;;;;;7.40;99.90;;;;;;5018985;28;19929;-84
2023/01/14 11:56:22;;;;;;;;;;;7.40;99.90;;;;;;5020152;28;20062;-84
2023/01/14 11:58:47;;;;;;;;;;;7.50;99.90;;;;;;5003582;28;19972;-84
2023/01/14 12:01:17;;;;;;;;;;;7.50;99.90;;;;;;5019703;28;19936;-83
2023/01/14 12:03:52;;;;;;;;;;;7.60;99.90;;;;;;5033791;28;19929;-84
2023/01/14 12:06:20;;;;;;;;;;;7.60;99.90;;;;;;5019950;28;20558;-84
2023/01/14 12:08:48;;;;;;;;;;;7.60;99.90;;;;;;5016738;28;19929;-84
2023/01/14 12:11:17;;;;;;;;;;;7.70;99.90;;;;;;5018153;28;19925;-85
2023/01/14 12:16:50;;;;;;;;;;;7.80;99.90;;;;;;5039404;28;19925;-85
2023/01/14 12:19:35;;;;;;;;;;;7.80;99.90;;;;;;5019460;28;19975;-84
2023/01/14 12:22:15;;;;;;;;;;;7.90;99.90;;;;;;5019776;28;19925;-85
2023/01/14 12:25:00;;;;;;;;;;;7.90;99.90;;;;;;5018407;28;19932;-84
2023/01/14 12:27:43;;;;;;;;;;;7.90;99.90;;;;;;5007188;28;20449;-84
2023/01/14 12:30:09;;;;;;;;;;;8.00;99.90;;;;;;5016223;28;19925;-84
2023/01/14 12:32:36;;;;;;;;;;;8.00;99.90;;;;;;5036577;28;19979;-84
2023/01/14 12:35:03;;;;;;;;;;;8.00;99.90;;;;;;5019064;28;20355;-85
2023/01/14 12:37:38;;;;;;;;;;;8.10;99.90;;;;;;5030831;28;19929;-84
2023/01/14 12:46:06;;;;;;;;;;;8.20;99.90;;;;;;5037456;28;19925;-87
2023/01/14 12:48:32;;;;;;;;;;;8.30;99.90;;;;;;5006331;28;19951;-86
2023/01/14 12:51:17;;;;;;;;;;;8.30;99.90;;;;;;5020197;28;19968;-87
2023/01/14 12:53:51;;;;;;;;;;;8.30;99.90;;;;;;5018030;28;19925;-87
2023/01/14 12:56:23;;;;;;;;;;;8.30;99.90;;;;;;5002209;28;19940;-87
2023/01/14 12:58:59;;;;;;;;;;;8.40;99.90;;;;;;5019033;28;19939;-86
2023/01/14 13:01:26;;;;;;;;;;;8.40;99.90;;;;;;4999152;28;19925;-81
2023/01/14 13:03:57;;;;;;;;;;;8.40;99.90;;;;;;5020681;28;19925;-81
2023/01/14 13:06:25;;;;;;;;;;;8.50;99.90;;;;;;5019160;28;19936;-81
2023/01/14 13:08:52;;;;;;;;;;;8.50;99.90;;;;;;5036734;28;20002;-81
2023/01/14 13:11:21;;;;;;;;;;;8.50;99.90;;;;;;5038001;28;19929;-81
2023/01/14 13:13:50;;;;;;;;;;;8.60;99.90;;;;;;5001989;28;19925;-81
2023/01/14 13:16:34;;;;;;;;;;;8.60;99.90;;;;;;5038278;28;19983;-81
2023/01/14 13:19:00;;;;;;;;;;;8.70;99.90;;;;;;5023095;28;19925;-81
2023/01/14 13:21:49;;;;;;;;;;;8.70;99.90;;;;;;5037562;28;19925;-81
2023/01/14 13:24:28;;;;;;;;;;;8.70;99.90;;;;;;5028831;28;19925;-81
2023/01/14 13:26:55;;;;;;;;;;;8.80;99.90;;;;;;5035744;28;19929;-81
2023/01/14 13:29:22;;;;;;;;;;;8.80;99.90;;;;;;5019482;28;19925;-81
2023/01/14 13:31:47;;;;;;;;;;;8.80;99.90;;;;;;5034085;28;19929;-88
2023/01/14 13:34:22;;;;;;;;;;;8.80;99.90;;;;;;5018472;28;20012;-88
2023/01/14 13:37:08;;;;;;;;;;;8.90;99.90;;;;;;5017931;28;19933;-88
2023/01/14 13:39:34;;;;;;;;;;;8.90;99.90;;;;;;5007240;28;19925;-88
2023/01/14 13:42:01;;;;;;;;;;;9.00;99.90;;;;;;5021336;28;20393;-89
2023/01/14 13:44:29;;;;;;;;;;;9.10;99.90;;;;;;5020425;28;20415;-89
2023/01/14 13:47:02;;;;;;;;;;;9.10;99.90;;;;;;5016719;28;19936;-89
2023/01/14 13:49:28;;;;;;;;;;;9.10;99.90;;;;;;5022514;28;19987;-90
2023/01/14 13:52:06;;;;;;;;;;;9.20;99.90;;;;;;5022316;28;20635;-89
2023/01/14 13:54:34;;;;;;;;;;;9.20;99.90;;;;;;5040315;28;19925;-88
2023/01/14 13:57:14;;;;;;;;;;;9.20;99.90;;;;;;5039784;28;19995;-90
2023/01/14 13:59:42;;;;;;;;;;;9.30;99.90;;;;;;5022883;28;19932;-88
2023/01/14 14:02:27;;;;;;;;;;;9.30;99.90;;;;;;5038555;28;19931;-88
2023/01/14 14:04:55;;;;;;;;;;;9.30;99.90;;;;;;5022590;28;19925;-90
2023/01/14 14:07:39;;;;;;;;;;;9.30;99.90;;;;;;5023907;28;19941;-88
2023/01/14 14:10:07;;;;;;;;;;;9.40;99.90;;;;;;5021181;28;19925;-89
2023/01/14 14:15:22;;;;;;;;;;;9.40;99.90;;;;;;5040270;28;19956;-88
2023/01/14 14:17:56;;;;;;;;;;;9.40;99.90;;;;;;5005796;28;19944;-88
2023/01/14 14:20:22;;;;;;;;;;;9.40;99.90;;;;;;5006584;28;20022;-87
2023/01/14 14:22:54;;;;;;;;;;;9.40;99.90;;;;;;5000819;28;19936;-88
2023/01/14 14:25:29;;;;;;;;;;;9.40;99.90;;;;;;5004920;28;19932;-88
2023/01/14 14:27:55;;;;;;;;;;;9.40;99.90;;;;;;5040464;28;20439;-88
2023/01/14 14:30:41;;;;;;;;;;;9.40;99.90;;;;;;5038033;28;19975;-87
2023/01/14 14:33:26;;;;;;;;;;;9.40;99.90;;;;;;4998912;28;19929;-88
2023/01/14 14:35:52;;;;;;;;;;;9.40;99.90;;;;;;5010644;28;19961;-88
2023/01/14 14:38:18;;;;;;;;;;;9.40;99.90;;;;;;5047645;28;19929;-90
2023/01/14 14:40:44;;;;;;;;;;;9.40;99.90;;;;;;5020426;28;19925;-88
2023/01/14 14:43:21;;;;;;;;;;;9.40;99.90;;;;;;5028266;28;19987;-88
2023/01/14 14:45:57;;;;;;;;;;;9.50;99.90;;;;;;5038870;28;19925;-88
2023/01/14 14:48:26;;;;;;;;;;;9.50;99.90;;;;;;5004824;28;19935;-88
2023/01/14 14:50:52;;;;;;;;;;;9.50;99.90;;;;;;5006818;28;19925;-89
2023/01/14 14:53:29;;;;;;;;;;;9.50;99.90;;;;;;5019303;28;19972;-88
2023/01/14 14:55:56;;;;;;;;;;;9.60;99.90;;;;;;5036585;28;19929;-89
2023/01/14 14:58:25;;;;;;;;;;;9.60;99.90;;;;;;5021755;28;19936;-88
2023/01/14 15:00:56;;;;;;;;;;;9.60;99.90;;;;;;5021212;28;19960;-89
2023/01/14 15:03:22;;;;;;;;;;;9.60;99.90;;;;;;5020930;28;19933;-88
2023/01/14 15:05:48;;;;;;;;;;;9.60;99.90;;;;;;5033269;28;19925;-89
2023/01/14 15:08:16;;;;;;;;;;;9.60;99.90;;;;;;5034467;28;19926;-87
2023/01/14 15:10:43;;;;;;;;;;;9.60;99.90;;;;;;5019567;28;19925;-88
2023/01/14 15:13:23;;;;;;;;;;;9.60;99.90;;;;;;5020165;28;19933;-88
2023/01/14 15:16:08;;;;;;;;;;;9.60;99.90;;;;;;5027492;28;19936;-88
2023/01/14 15:18:33;;;;;;;;;;;9.60;99.90;;;;;;5039214;28;19925;-86
2023/01/14 15:20:59;;;;;;;;;;;9.60;99.90;;;;;;5040091;28;19925;-83
2023/01/14 15:23:24;;;;;;;;;;;9.60;99.90;;;;;;5037971;28;20404;-83
2023/01/14 15:25:51;;;;;;;;;;;9.60;99.90;;;;;;5039434;28;19925;-84